Time;durP1;ratioP1;P1;durP2;ratioP2;P2;SDS_P1;SDS_P2;PMS_P1;PMS_P2;Temp;Humidity;BMP_temperature;BMP_pressure;BME280_temperature;BME280_humidity;BME280_pressure;Samples;Min_cycle;Max_cycle;Signal;HPM_P1;HPM_P2
2022/06/26 00:01:57;;;;;;;;;;;;;;;15.00;49.65;100602.28;4960083;29;1014;-45
2022/06/26 00:04:23;;;;;;;;;;;;;;;14.93;49.63;100607.97;4959972;29;1915;-43
2022/06/26 00:06:48;;;;;;;;;;;;;;;15.04;49.23;100598.72;4958429;29;1129;-45
2022/06/26 00:09:13;;;;;;;;;;;;;;;15.00;49.45;100603.09;4962984;28;1172;-44
2022/06/26 00:11:39;;;;;;;;;;;;;;;14.98;49.56;100597.03;4962062;28;968;-44
2022/06/26 00:14:04;;;;;;;;;;;;;;;15.01;49.15;100598.41;4959190;29;1173;-46
2022/06/26 00:16:30;;;;;;;;;;;;;;;14.99;49.56;100604.16;4959646;29;1046;-45
2022/06/26 00:18:56;;;;;;;;;;;;;;;14.93;49.35;100604.41;4959934;28;1211;-47
2022/06/26 00:21:22;;;;;;;;;;;;;;;14.92;49.35;100606.34;4965324;28;854;-47
2022/06/26 00:23:47;;;;;;;;;;;;;;;14.95;49.36;100611.25;4965126;28;1910;-45
2022/06/26 00:26:12;;;;;;;;;;;;;;;14.90;49.14;100608.53;4959474;29;1267;-43
2022/06/26 00:28:38;;;;;;;;;;;;;;;14.87;49.39;100618.09;4959511;29;1090;-43
2022/06/26 00:31:03;;;;;;;;;;;;;;;14.86;49.45;100608.22;4959369;29;1134;-47
2022/06/26 00:33:29;;;;;;;;;;;;;;;16.02;49.60;100611.84;4959063;29;1028;-45
2022/06/26 00:35:54;;;;;;;;;;;;;;;15.44;51.23;100603.78;4941643;28;1176;-42
2022/06/26 00:38:20;;;;;;;;;;;;;;;15.24;51.06;100613.59;4942121;29;1072;-47
2022/06/26 00:40:45;;;;;;;;;;;;;;;15.16;50.40;100611.38;4958951;29;1160;-45
2022/06/26 00:43:11;;;;;;;;;;;;;;;15.11;50.37;100608.59;4959395;28;1208;-46
2022/06/26 00:45:36;;;;;;;;;;;;;;;15.02;50.01;100613.78;4947518;29;1981;-45
2022/06/26 00:48:02;;;;;;;;;;;;;;;15.09;49.89;100621.75;4958878;29;963;-50
2022/06/26 00:50:27;;;;;;;;;;;;;;;14.99;49.84;100617.84;4941741;29;1174;-46
2022/06/26 00:52:53;;;;;;;;;;;;;;;14.95;49.37;100599.50;4959110;29;1074;-45
2022/06/26 00:55:18;;;;;;;;;;;;;;;14.92;49.75;100605.50;4941640;29;1107;-46
2022/06/26 00:57:44;;;;;;;;;;;;;;;14.87;49.76;100603.56;4959056;29;1146;-46
2022/06/26 01:00:10;;;;;;;;;;;;;;;14.92;49.36;100611.81;4961154;28;1142;-44
2022/06/26 01:02:35;;;;;;;;;;;;;;;14.93;49.53;100601.66;4960288;28;999;-41
2022/06/26 01:05:01;;;;;;;;;;;;;;;16.65;49.58;100608.78;4958385;29;1961;-47
2022/06/26 01:07:26;;;;;;;;;;;;;;;15.48;51.18;100615.84;4944160;28;1342;-45
2022/06/26 01:09:52;;;;;;;;;;;;;;;15.30;51.16;100609.75;4960244;28;1394;-47
2022/06/26 01:12:17;;;;;;;;;;;;;;;15.18;50.62;100614.66;4958876;29;1209;-48
2022/06/26 01:14:43;;;;;;;;;;;;;;;15.17;50.24;100613.03;4957524;29;1005;-47
2022/06/26 01:17:09;;;;;;;;;;;;;;;15.16;49.91;100611.38;4958643;28;1121;-47
2022/06/26 01:19:34;;;;;;;;;;;;;;;15.03;50.05;100605.28;4931860;28;1164;-43
2022/06/26 01:21:59;;;;;;;;;;;;;;;15.04;49.64;100617.91;4946550;29;1150;-46
2022/06/26 01:24:25;;;;;;;;;;;;;;;15.04;49.58;100604.19;4940349;29;1975;-47
2022/06/26 01:26:51;;;;;;;;;;;;;;;15.11;49.29;100605.84;4957294;28;870;-44
2022/06/26 01:29:16;;;;;;;;;;;;;;;15.01;49.59;100614.84;4940975;29;1184;-46
2022/06/26 01:31:42;;;;;;;;;;;;;;;14.98;49.49;100609.91;4940986;29;1513;-50
2022/06/26 01:34:07;;;;;;;;;;;;;;;14.93;49.70;100613.47;4943666;29;1203;-44
2022/06/26 01:36:33;;;;;;;;;;;;;;;14.95;49.48;100604.97;4958597;28;880;-43
2022/06/26 01:39:00;;;;;;;;;;;;;;;14.93;49.40;100613.47;4958017;29;1172;-49
2022/06/26 01:41:25;;;;;;;;;;;;;;;16.20;49.94;100607.72;4941022;29;1226;-44
2022/06/26 01:43:51;;;;;;;;;;;;;;;15.46;51.17;100615.28;4940965;29;1977;-43
2022/06/26 01:46:17;;;;;;;;;;;;;;;15.20;50.95;100601.53;4946664;29;1293;-45
2022/06/26 01:48:42;;;;;;;;;;;;;;;15.16;50.67;100611.38;4940941;29;1255;-45
2022/06/26 01:51:10;;;;;;;;;;;;;;;15.11;50.35;100608.59;4931620;29;1220;-43
2022/06/26 01:53:37;;;;;;;;;;;;;;;15.09;50.14;100611.59;4941091;29;1168;-46
2022/06/26 01:56:03;;;;;;;;;;;;;;;15.05;50.01;100607.75;4940823;29;1165;-47
2022/06/26 01:58:57;;;;;;;;;;;;;;;15.02;49.42;100616.50;4942975;29;1172;-45
2022/06/26 02:01:30;;;;;;;;;;;;;;;15.00;49.73;100603.09;4939687;29;1133;-44
2022/06/26 02:03:56;;;;;;;;;;;;;;;15.01;49.25;100610.22;4940534;29;1906;-49
2022/06/26 02:06:21;;;;;;;;;;;;;;;14.93;49.39;100607.13;4940340;29;1521;-45
2022/06/26 02:08:47;;;;;;;;;;;;;;;14.92;49.24;100611.81;4960842;28;1169;-45
2022/06/26 02:13:57;;;;;;;;;;;;;;;14.89;49.34;100606.88;4940767;29;1133;-51
2022/06/26 02:16:29;;;;;;;;;;;;;;;15.01;49.68;100610.22;4940363;29;1120;-45
2022/06/26 02:18:55;;;;;;;;;;;;;;;15.84;50.66;100610.47;4940506;29;2168;-48
2022/06/26 02:21:23;;;;;;;;;;;;;;;15.32;50.95;100618.56;4940443;29;1149;-44
2022/06/26 02:23:49;;;;;;;;;;;;;;;15.19;50.78;100622.63;4960882;29;1906;-45
2022/06/26 02:26:17;;;;;;;;;;;;;;;15.66;50.94;100623.56;4939990;29;1121;-45
2022/06/26 02:28:42;;;;;;;;;;;;;;;15.71;51.36;100629.06;4944503;29;1160;-43
2022/06/26 02:31:08;;;;;;;;;;;;;;;15.36;51.27;100627.88;4947371;29;1284;-44
2022/06/26 02:33:34;;;;;;;;;;;;;;;15.28;50.91;100622.91;4961920;29;1089;-44
2022/06/26 02:36:00;;;;;;;;;;;;;;;15.23;50.45;100618.25;4961828;28;1157;-43
2022/06/26 02:38:25;;;;;;;;;;;;;;;15.15;50.25;100623.41;4961889;29;998;-43
2022/06/26 02:40:51;;;;;;;;;;;;;;;15.18;49.84;100623.69;4961658;29;1204;-43
2022/06/26 02:43:18;;;;;;;;;;;;;;;15.10;49.61;100626.94;4943963;29;1147;-44
2022/06/26 02:45:45;;;;;;;;;;;;;;;15.10;49.52;100628.88;4943538;29;1903;-47
2022/06/26 02:48:10;;;;;;;;;;;;;;;15.06;49.75;100640.34;4944028;29;1321;-46
2022/06/26 02:50:37;;;;;;;;;;;;;;;15.05;49.44;100644.19;4956418;29;1172;-47
2022/06/26 02:53:04;;;;;;;;;;;;;;;15.06;49.55;100639.53;4942369;29;1078;-45
2022/06/26 02:55:29;;;;;;;;;;;;;;;15.01;49.65;100643.06;4945515;29;998;-48
2022/06/26 02:57:55;;;;;;;;;;;;;;;15.89;50.26;100643.38;4942677;29;1285;-48
2022/06/26 03:00:20;;;;;;;;;;;;;;;15.36;50.97;100644.31;4959900;29;1082;-47
2022/06/26 03:02:47;;;;;;;;;;;;;;;15.32;50.60;100648.69;4942774;29;1303;-47
2022/06/26 03:05:12;;;;;;;;;;;;;;;15.21;50.19;100642.34;4940898;29;1914;-42
2022/06/26 03:07:38;;;;;;;;;;;;;;;15.14;50.34;100652.72;4943844;29;1153;-47
2022/06/26 03:10:04;;;;;;;;;;;;;;;15.15;50.05;100654.38;4944992;29;1121;-45
2022/06/26 03:12:30;;;;;;;;;;;;;;;15.14;49.84;100646.44;4942385;29;1142;-44
2022/06/26 03:14:56;;;;;;;;;;;;;;;15.10;49.51;100661.75;4942232;29;1125;-47
2022/06/26 03:17:21;;;;;;;;;;;;;;;15.08;49.71;100652.94;4942008;29;1189;-46
2022/06/26 03:19:48;;;;;;;;;;;;;;;15.08;49.47;100658.44;4941489;28;1435;-47
2022/06/26 03:22:14;;;;;;;;;;;;;;;15.05;49.48;100643.34;4942348;29;1107;-50
2022/06/26 03:24:39;;;;;;;;;;;;;;;15.00;49.58;100643.34;4942473;29;1914;-46
2022/06/26 03:27:05;;;;;;;;;;;;;;;15.05;49.19;100646.94;4941866;29;1078;-46
2022/06/26 03:29:31;;;;;;;;;;;;;;;15.01;49.51;100659.50;4959898;29;1190;-54
2022/06/26 03:31:56;;;;;;;;;;;;;;;16.08;50.12;100660.13;4958978;28;1252;-51
2022/06/26 03:34:23;;;;;;;;;;;;;;;15.43;51.18;100659.69;4947403;28;1257;-51
2022/06/26 03:36:48;;;;;;;;;;;;;;;15.26;50.67;100659.88;4961064;28;952;-50
2022/06/26 03:39:15;;;;;;;;;;;;;;;15.25;50.33;100659.06;4942106;29;1240;-53
2022/06/26 03:41:40;;;;;;;;;;;;;;;15.21;50.07;100657.97;4945614;29;1205;-46
2022/06/26 03:44:06;;;;;;;;;;;;;;;15.15;50.08;100669.97;4941549;28;1895;-45
2022/06/26 03:46:32;;;;;;;;;;;;;;;15.10;49.84;100665.28;4942743;29;1367;-46
2022/06/26 03:48:58;;;;;;;;;;;;;;;16.75;50.15;100671.09;4941326;29;1449;-49
2022/06/26 03:51:25;;;;;;;;;;;;;;;15.73;51.63;100665.25;4900242;29;1211506;-52
2022/06/26 03:53:51;;;;;;;;;;;;;;;15.49;51.19;100666.84;4941630;29;1398;-55
2022/06/26 03:56:17;;;;;;;;;;;;;;;15.39;50.91;100664.88;4942864;29;1153;-55
2022/06/26 03:58:43;;;;;;;;;;;;;;;15.29;50.84;100660.19;4940967;29;1236;-51
2022/06/26 04:01:11;;;;;;;;;;;;;;;15.25;50.44;100672.78;4943057;29;1357;-48
2022/06/26 04:03:36;;;;;;;;;;;;;;;15.32;50.25;100665.13;4941997;29;1432;-50
2022/06/26 04:06:02;;;;;;;;;;;;;;;15.19;50.17;100671.09;4943147;29;1461;-49
2022/06/26 04:08:34;;;;;;;;;;;;;;;15.20;50.04;100675.47;4942621;29;1236;-52
2022/06/26 04:11:05;;;;;;;;;;;;;;;15.21;49.91;100668.91;4942428;29;1176;-52
2022/06/26 04:13:34;;;;;;;;;;;;;;;15.15;50.12;100680.91;4944035;29;1295;-51
2022/06/26 04:16:01;;;;;;;;;;;;;;;15.16;49.90;100677.09;4942149;29;1256;-52
2022/06/26 04:18:27;;;;;;;;;;;;;;;15.16;49.64;100683.38;4942207;29;1275;-53
2022/06/26 04:20:54;;;;;;;;;;;;;;;15.09;49.77;100671.03;4941994;29;1246;-52
2022/06/26 04:23:19;;;;;;;;;;;;;;;15.11;49.90;100677.91;4959740;28;1375;-48
2022/06/26 04:25:46;;;;;;;;;;;;;;;15.07;49.83;100674.06;4942179;28;1906;-51
2022/06/26 04:28:12;;;;;;;;;;;;;;;15.04;49.79;100680.06;4942725;29;1160;-52
2022/06/26 04:30:41;;;;;;;;;;;;;;;15.09;49.52;100682.81;4942430;29;1330;-50
2022/06/26 04:33:07;;;;;;;;;;;;;;;15.07;49.68;100685.00;4959906;28;1352;-51
2022/06/26 04:35:34;;;;;;;;;;;;;;;15.00;49.51;100687.97;4941942;29;1161;-45
2022/06/26 04:38:00;;;;;;;;;;;;;;;15.05;49.42;100693.50;4941877;29;1126;-50
2022/06/26 04:40:26;;;;;;;;;;;;;;;15.02;49.50;100699.47;4926407;29;1394;-53
2022/06/26 04:42:51;;;;;;;;;;;;;;;16.38;49.72;100697.75;4942048;29;1321;-45
2022/06/26 04:45:17;;;;;;;;;;;;;;;15.45;51.17;100690.38;4960068;28;1979;-50
2022/06/26 04:47:44;;;;;;;;;;;;;;;15.28;50.98;100696.88;4958943;28;963;-50
2022/06/26 04:50:15;;;;;;;;;;;;;;;15.33;50.64;100688.69;4941399;29;1397;-46
2022/06/26 04:52:47;;;;;;;;;;;;;;;15.26;50.44;100700.97;4941955;29;1327;-48
2022/06/26 04:55:13;;;;;;;;;;;;;;;15.23;50.04;100684.00;4924528;29;1458;-48
2022/06/26 04:57:41;;;;;;;;;;;;;;;15.20;50.19;100687.25;4960628;28;1039;-48
2022/06/26 05:00:11;;;;;;;;;;;;;;;15.18;49.97;100688.59;4941905;29;1169;-49
2022/06/26 05:02:41;;;;;;;;;;;;;;;15.12;50.09;100692.41;4952611;28;1165;-50
2022/06/26 05:05:18;;;;;;;;;;;;;;;15.15;49.93;100691.88;4971573;28;1982;-47
2022/06/26 05:08:06;;;;;;;;;;;;;;;15.13;49.75;100692.16;4961479;28;1216;-52
2022/06/26 05:10:33;;;;;;;;;;;;;;;15.14;49.55;100685.59;4955820;28;1125;-47
2022/06/26 05:12:59;;;;;;;;;;;;;;;15.14;49.79;100698.47;4972030;28;1267;-47
2022/06/26 05:15:50;;;;;;;;;;;;;;;15.17;49.74;100697.94;4937285;28;1223;-50
2022/06/26 05:18:16;;;;;;;;;;;;;;;15.09;49.98;100692.94;4956793;28;1378;-43
2022/06/26 05:20:42;;;;;;;;;;;;;;;15.15;49.79;100698.19;4941580;29;1117;-50
2022/06/26 05:23:09;;;;;;;;;;;;;;;15.08;49.93;100699.50;4941525;29;1123;-44
2022/06/26 05:25:42;;;;;;;;;;;;;;;15.08;49.85;100703.06;4941204;29;1910;-45
2022/06/26 05:28:07;;;;;;;;;;;;;;;15.05;49.87;100704.44;4945302;28;1113;-47
2022/06/26 05:30:33;;;;;;;;;;;;;;;15.11;49.91;100701.72;4969883;28;1090;-48
2022/06/26 05:33:02;;;;;;;;;;;;;;;15.10;49.83;100694.59;4952557;28;1434;-47
2022/06/26 05:35:27;;;;;;;;;;;;;;;15.11;49.66;100701.72;4953992;28;1116;-47
2022/06/26 05:37:53;;;;;;;;;;;;;;;14.97;50.14;100704.09;4954576;28;1292;-50
2022/06/26 05:40:18;;;;;;;;;;;;;;;15.08;49.97;100702.25;4951415;29;1260;-45
2022/06/26 05:42:46;;;;;;;;;;;;;;;15.05;49.75;100701.69;4952421;28;1905;-47
2022/06/26 05:45:11;;;;;;;;;;;;;;;14.98;50.08;100703.00;4955665;28;1985;-50
2022/06/26 05:47:37;;;;;;;;;;;;;;;15.01;49.80;100707.94;4956119;28;1303;-48
2022/06/26 05:50:23;;;;;;;;;;;;;;;15.03;49.88;100700.31;4965845;28;1193;-47
2022/06/26 05:52:55;;;;;;;;;;;;;;;15.09;49.88;100698.44;4967759;28;1031;-49
2022/06/26 05:55:43;;;;;;;;;;;;;;;16.67;47.17;100710.91;4940828;28;1113;-45
2022/06/26 05:58:32;;;;;;;;;;;;;;;16.70;47.18;100706.78;4951099;28;1116;-49
2022/06/26 06:01:20;;;;;;;;;;;;;;;16.39;48.71;100709.53;4914794;28;1189;-50
2022/06/26 06:03:49;;;;;;;;;;;;;;;16.28;49.08;100708.69;4940299;29;1965;-45
2022/06/26 06:06:16;;;;;;;;;;;;;;;16.23;49.41;100703.22;4957757;28;1023;-48
2022/06/26 06:08:42;;;;;;;;;;;;;;;16.18;50.20;100704.03;4940738;29;1118;-48
2022/06/26 06:11:07;;;;;;;;;;;;;;;16.18;50.19;100706.78;4957720;28;1066;-42
2022/06/26 06:13:33;;;;;;;;;;;;;;;16.17;50.61;100712.53;4958224;29;1181;-47
2022/06/26 06:15:58;;;;;;;;;;;;;;;16.13;50.87;100716.91;4940122;29;1339;-47
2022/06/26 06:18:24;;;;;;;;;;;;;;;16.10;51.19;100701.81;4940242;29;1408;-48
2022/06/26 06:20:51;;;;;;;;;;;;;;;16.07;51.72;100710.59;4957613;28;1069;-50
2022/06/26 06:23:18;;;;;;;;;;;;;;;16.04;51.71;100709.22;4944746;29;1362;-47
2022/06/26 06:25:43;;;;;;;;;;;;;;;16.01;52.05;100711.69;4939824;29;1907;-45
2022/06/26 06:28:09;;;;;;;;;;;;;;;16.05;52.37;100705.38;4940748;29;1384;-46
2022/06/26 06:30:39;;;;;;;;;;;;;;;15.95;52.50;100710.84;4940696;28;1316;-49
2022/06/26 06:33:05;;;;;;;;;;;;;;;17.78;48.18;100696.31;4943270;28;1223;-48
2022/06/26 06:35:40;;;;;;;;;;;;;;;16.78;50.59;100706.22;4954943;28;1234;-46
2022/06/26 06:38:06;;;;;;;;;;;;;;;16.47;51.65;100703.50;4954605;28;1210;-50
2022/06/26 06:40:32;;;;;;;;;;;;;;;16.40;52.20;100700.22;4954552;28;1273;-48
2022/06/26 06:43:00;;;;;;;;;;;;;;;16.37;52.41;100701.59;4972970;28;1236;-48
2022/06/26 06:45:31;;;;;;;;;;;;;;;16.24;52.78;100705.69;4954066;28;1919;-49
2022/06/26 06:48:00;;;;;;;;;;;;;;;16.21;53.30;100703.47;4955849;28;1126;-49
2022/06/26 06:50:37;;;;;;;;;;;;;;;16.19;53.23;100710.34;4969789;28;1237;-48
2022/06/26 06:53:03;;;;;;;;;;;;;;;16.15;53.65;100696.34;4947521;28;1309;-49
2022/06/26 06:55:28;;;;;;;;;;;;;;;16.13;53.78;100706.78;4969653;28;1300;-49
2022/06/26 06:57:56;;;;;;;;;;;;;;;16.14;54.01;100707.59;4955217;28;1971;-49
2022/06/26 07:00:22;;;;;;;;;;;;;;;16.07;54.21;100708.69;4955883;28;1257;-47
2022/06/26 07:02:47;;;;;;;;;;;;;;;16.05;54.36;100705.38;4970637;28;1178;-51
2022/06/26 07:05:13;;;;;;;;;;;;;;;16.05;54.56;100710.06;4953233;28;1910;-49
2022/06/26 07:07:38;;;;;;;;;;;;;;;16.91;52.43;100691.13;4939010;28;1277;-46
2022/06/26 07:10:04;;;;;;;;;;;;;;;17.33;51.17;100700.88;4973240;28;1035;-48
2022/06/26 07:12:29;;;;;;;;;;;;;;;16.69;53.20;100697.72;4946126;28;1682;-50
2022/06/26 07:14:55;;;;;;;;;;;;;;;16.49;54.01;100698.53;4958831;28;1299;-46
2022/06/26 07:17:22;;;;;;;;;;;;;;;16.41;54.08;100696.34;4976525;28;1043;-45
2022/06/26 07:19:51;;;;;;;;;;;;;;;16.37;54.49;100698.84;4951147;28;1279;-46
2022/06/26 07:22:17;;;;;;;;;;;;;;;16.31;54.58;100694.44;4973765;28;1315;-47
2022/06/26 07:24:43;;;;;;;;;;;;;;;16.25;55.04;100695.53;4960136;28;1909;-48
2022/06/26 07:27:23;;;;;;;;;;;;;;;16.22;55.02;100696.09;4957901;28;1181;-47
2022/06/26 07:29:49;;;;;;;;;;;;;;;16.19;55.27;100700.19;4975379;28;1137;-49
2022/06/26 07:32:15;;;;;;;;;;;;;;;16.15;55.50;100692.78;4952833;28;1223;-49
2022/06/26 07:34:41;;;;;;;;;;;;;;;17.69;51.81;100695.25;4943134;29;1598;-49
2022/06/26 07:37:06;;;;;;;;;;;;;;;17.06;53.28;100693.03;4958873;28;901;-49
2022/06/26 07:39:32;;;;;;;;;;;;;;;16.67;54.71;100694.44;4960228;28;995;-45
2022/06/26 07:41:58;;;;;;;;;;;;;;;16.50;55.12;100699.38;4945013;28;1212;-49
2022/06/26 07:44:28;;;;;;;;;;;;;;;16.45;55.62;100691.97;4958029;28;1911;-50
2022/06/26 07:46:54;;;;;;;;;;;;;;;16.40;55.65;100691.97;4953986;29;1267;-48
2022/06/26 07:49:37;;;;;;;;;;;;;;;16.34;55.86;100687.56;4958796;28;1490;-47
2022/06/26 07:52:02;;;;;;;;;;;;;;;16.25;55.98;100699.09;4958695;28;1302;-48
2022/06/26 07:54:28;;;;;;;;;;;;;;;16.27;55.79;100701.59;4969116;28;1473;-49
2022/06/26 07:56:53;;;;;;;;;;;;;;;16.27;56.16;100706.22;4971869;28;1118;-46
2022/06/26 07:59:19;;;;;;;;;;;;;;;16.25;55.96;100706.50;4975111;28;1176;-45
2022/06/26 08:01:45;;;;;;;;;;;;;;;16.20;56.42;100706.50;4971315;28;1071;-46
2022/06/26 08:04:10;;;;;;;;;;;;;;;16.20;56.28;100717.47;4975486;28;1902;-49
2022/06/26 08:06:36;;;;;;;;;;;;;;;16.17;56.51;100718.00;4973098;28;1224;-48
2022/06/26 08:09:01;;;;;;;;;;;;;;;16.14;56.72;100715.81;4970446;28;1260;-48
2022/06/26 08:11:29;;;;;;;;;;;;;;;16.11;56.41;100714.44;4959359;28;1055;-47
2022/06/26 08:13:54;;;;;;;;;;;;;;;16.12;56.69;100720.75;4971465;28;1240;-48
2022/06/26 08:16:20;;;;;;;;;;;;;;;16.10;56.57;100717.47;4967236;28;2580;-50
2022/06/26 08:18:45;;;;;;;;;;;;;;;16.07;56.76;100713.34;4961084;28;1847;-45
2022/06/26 08:23:55;;;;;;;;;;;;;;;15.99;57.23;100716.59;4959699;28;2300;-49
2022/06/26 08:26:20;;;;;;;;;;;;;;;16.02;56.89;100716.06;4956968;28;2066;-49
2022/06/26 08:28:46;;;;;;;;;;;;;;;16.00;57.17;100715.53;4962059;28;1980;-45
2022/06/26 08:31:11;;;;;;;;;;;;;;;16.01;56.95;100715.25;4955505;28;2102;-52
2022/06/26 08:33:37;;;;;;;;;;;;;;;17.73;53.52;100715.56;4959448;28;1085;-50
2022/06/26 08:36:04;;;;;;;;;;;;;;;16.82;55.91;100717.50;4959536;28;1050;-50
2022/06/26 08:38:29;;;;;;;;;;;;;;;16.52;56.50;100724.63;4959217;29;1014;-47
2022/06/26 08:40:55;;;;;;;;;;;;;;;16.46;56.97;100717.50;4965151;28;963;-49
2022/06/26 08:43:20;;;;;;;;;;;;;;;16.35;56.94;100714.72;4927350;28;1746;-47
2022/06/26 08:45:46;;;;;;;;;;;;;;;16.31;57.19;100713.63;4961952;28;1973;-49
2022/06/26 08:48:12;;;;;;;;;;;;;;;16.25;57.04;100704.56;4945701;29;1507;-48
2022/06/26 08:50:37;;;;;;;;;;;;;;;16.20;57.16;100711.97;4958647;28;1203;-49
2022/06/26 08:53:03;;;;;;;;;;;;;;;16.20;56.98;100722.94;4958504;29;1018;-47
2022/06/26 08:55:28;;;;;;;;;;;;;;;16.17;57.13;100720.75;4942838;28;1213;-46
2022/06/26 08:57:54;;;;;;;;;;;;;;;16.15;57.38;100729.25;4958797;29;1089;-47
2022/06/26 09:00:19;;;;;;;;;;;;;;;16.13;57.44;100731.47;4958132;28;1181;-49
2022/06/26 09:02:46;;;;;;;;;;;;;;;16.14;57.30;100729.53;4959026;28;2722;-49
2022/06/26 09:05:11;;;;;;;;;;;;;;;16.10;57.30;100729.25;4958824;28;1910;-47
2022/06/26 09:07:46;;;;;;;;;;;;;;;16.11;57.27;100730.09;4958592;28;975;-48
2022/06/26 09:10:12;;;;;;;;;;;;;;;16.06;57.23;100728.97;4959106;29;1066;-47
2022/06/26 09:12:37;;;;;;;;;;;;;;;16.11;57.09;100730.91;4958961;28;928;-48
2022/06/26 09:15:03;;;;;;;;;;;;;;;16.07;57.48;100738.03;4958626;28;975;-49
2022/06/26 09:17:28;;;;;;;;;;;;;;;16.05;57.50;100740.22;4962012;28;1201;-50
2022/06/26 09:19:54;;;;;;;;;;;;;;;16.06;57.59;100748.19;4958726;28;1081;-50
2022/06/26 09:22:22;;;;;;;;;;;;;;;16.05;57.33;100741.03;4941703;28;1601;-51
2022/06/26 09:24:55;;;;;;;;;;;;;;;16.05;57.29;100735.56;4958915;28;1976;-48
2022/06/26 09:27:21;;;;;;;;;;;;;;;16.01;57.42;100728.97;4967062;28;1574;-46
2022/06/26 09:29:53;;;;;;;;;;;;;;;16.00;57.65;100734.72;4953096;28;1111;-47
2022/06/26 09:32:21;;;;;;;;;;;;;;;16.00;57.35;100729.25;4962102;28;2381;-45
2022/06/26 09:34:47;;;;;;;;;;;;;;;15.95;57.61;100731.94;4973429;28;1228;-46
2022/06/26 09:37:13;;;;;;;;;;;;;;;16.00;57.61;100738.28;4956532;28;1117;-47
2022/06/26 09:39:38;;;;;;;;;;;;;;;15.99;57.43;100733.91;4958009;28;1614;-47
2022/06/26 09:42:15;;;;;;;;;;;;;;;15.97;57.30;100729.78;4965688;28;1158;-47
2022/06/26 09:44:47;;;;;;;;;;;;;;;15.94;57.69;100735.81;4958241;28;1910;-50
2022/06/26 09:47:25;;;;;;;;;;;;;;;17.64;54.85;100725.50;4958319;28;1130;-45
2022/06/26 09:49:51;;;;;;;;;;;;;;;16.98;56.97;100738.34;4958183;29;1034;-49
2022/06/26 09:52:20;;;;;;;;;;;;;;;16.62;57.88;100735.63;4963209;28;1181;-47
2022/06/26 09:54:47;;;;;;;;;;;;;;;16.46;58.06;100733.97;4961306;28;1335;-50
2022/06/26 09:57:13;;;;;;;;;;;;;;;16.40;57.81;100725.72;4957884;28;1474;-53
2022/06/26 09:59:38;;;;;;;;;;;;;;;16.33;58.03;100722.44;4965394;28;1115;-47
2022/06/26 10:07:32;;;;;;;;;;;;;;;16.22;57.77;100713.34;4972209;28;1225;-51
2022/06/26 10:09:57;;;;;;;;;;;;;;;16.20;57.81;100721.06;4972304;28;1245;-44
2022/06/26 10:12:23;;;;;;;;;;;;;;;16.23;57.89;100712.28;4954995;28;1206;-47
2022/06/26 10:14:51;;;;;;;;;;;;;;;16.20;57.69;100720.22;4955213;28;1327;-50
2022/06/26 10:17:20;;;;;;;;;;;;;;;16.21;57.83;100710.88;4955589;28;1198;-44
2022/06/26 10:19:46;;;;;;;;;;;;;;;16.12;57.96;100716.09;4966021;28;1274;-46
2022/06/26 10:22:12;;;;;;;;;;;;;;;16.20;57.57;100728.44;4967719;28;1058;-50
2022/06/26 10:24:48;;;;;;;;;;;;;;;16.16;57.77;100706.22;4970432;28;1973;-48
2022/06/26 10:27:13;;;;;;;;;;;;;;;16.13;57.83;100714.16;4967916;28;1375;-48
2022/06/26 10:29:39;;;;;;;;;;;;;;;16.11;57.58;100716.38;4973078;28;1331;-48
2022/06/26 10:32:05;;;;;;;;;;;;;;;16.11;57.82;100724.59;4968360;28;2365;-49
2022/06/26 10:34:31;;;;;;;;;;;;;;;16.10;57.80;100722.94;4947156;28;1364;-48
2022/06/26 10:36:57;;;;;;;;;;;;;;;16.08;57.73;100721.28;4968704;28;1224;-45
2022/06/26 10:39:22;;;;;;;;;;;;;;;16.07;57.98;100713.34;4970820;28;1097;-45
2022/06/26 10:44:44;;;;;;;;;;;;;;;16.09;57.75;100716.66;4973585;28;1967;-45
2022/06/26 10:47:13;;;;;;;;;;;;;;;16.05;57.96;100727.31;4966760;28;1494;-48
2022/06/26 10:49:49;;;;;;;;;;;;;;;16.02;57.98;100721.53;4977447;28;1244;-45
2022/06/26 10:52:27;;;;;;;;;;;;;;;15.99;57.85;100725.69;4964293;28;1533;-50
2022/06/26 10:54:53;;;;;;;;;;;;;;;15.97;58.08;100727.03;4956040;28;1146;-50
2022/06/26 10:57:18;;;;;;;;;;;;;;;15.99;57.84;100722.09;4973150;28;1051;-48
2022/06/26 10:59:44;;;;;;;;;;;;;;;15.95;57.94;100730.06;4972692;28;1377;-49
2022/06/26 11:02:09;;;;;;;;;;;;;;;15.97;57.97;100727.03;4975560;28;2408;-47
2022/06/26 11:04:47;;;;;;;;;;;;;;;17.25;56.45;100721.53;4972797;28;1910;-46
2022/06/26 11:07:14;;;;;;;;;;;;;;;17.21;57.12;100722.41;4973643;28;1051;-47
2022/06/26 11:09:39;;;;;;;;;;;;;;;16.68;58.74;100720.78;4977367;28;1102;-50
2022/06/26 11:12:05;;;;;;;;;;;;;;;16.52;58.51;100713.66;4974334;28;1220;-46
2022/06/26 11:14:31;;;;;;;;;;;;;;;16.43;58.53;100713.38;4970020;28;1099;-50
2022/06/26 11:16:56;;;;;;;;;;;;;;;16.37;58.51;100706.25;4972905;28;1066;-44
2022/06/26 11:19:22;;;;;;;;;;;;;;;16.35;58.31;100712.00;4975975;28;1168;-49
2022/06/26 11:21:48;;;;;;;;;;;;;;;16.28;58.47;100714.19;4974236;28;1141;-48
2022/06/26 11:24:13;;;;;;;;;;;;;;;16.25;58.25;100704.56;4974020;28;1903;-46
2022/06/26 11:26:39;;;;;;;;;;;;;;;16.26;58.35;100705.41;4971685;28;1232;-46
2022/06/26 11:29:04;;;;;;;;;;;;;;;16.23;58.16;100716.94;4976641;28;1292;-44
2022/06/26 11:31:30;;;;;;;;;;;;;;;16.23;58.33;100711.47;4970656;28;2542;-49
2022/06/26 11:34:09;;;;;;;;;;;;;;;16.15;58.23;100710.06;4972887;28;1384;-48
2022/06/26 11:36:34;;;;;;;;;;;;;;;16.12;58.16;100716.09;4969954;28;1243;-50
2022/06/26 11:39:00;;;;;;;;;;;;;;;16.11;58.06;100719.94;4971832;28;1289;-47
2022/06/26 11:41:25;;;;;;;;;;;;;;;16.11;58.09;100724.59;4975909;28;1496;-48
2022/06/26 11:43:52;;;;;;;;;;;;;;;16.10;58.16;100729.25;4962879;28;1239;-47
2022/06/26 11:46:17;;;;;;;;;;;;;;;16.12;58.28;100737.19;4960442;29;1915;-48
2022/06/26 11:48:43;;;;;;;;;;;;;;;16.10;58.26;100722.94;4943262;28;979;-50
2022/06/26 11:51:10;;;;;;;;;;;;;;;16.04;58.09;100728.41;4958121;28;1024;-47
2022/06/26 11:53:35;;;;;;;;;;;;;;;16.03;58.03;100729.53;4973109;28;1307;-48
2022/06/26 11:56:01;;;;;;;;;;;;;;;16.03;58.38;100735.03;4960410;28;1094;-51
2022/06/26 11:58:31;;;;;;;;;;;;;;;16.01;58.25;100731.69;4959783;28;1212;-46
2022/06/26 12:01:02;;;;;;;;;;;;;;;16.22;58.53;100724.34;4960023;28;2718;-50
2022/06/26 12:03:28;;;;;;;;;;;;;;;17.56;57.16;100729.69;4959077;28;1366;-47
2022/06/26 12:05:53;;;;;;;;;;;;;;;16.72;59.18;100730.13;4960436;28;1898;-50
2022/06/26 12:08:19;;;;;;;;;;;;;;;16.56;59.22;100726.56;4963350;28;995;-51
2022/06/26 12:10:49;;;;;;;;;;;;;;;16.48;59.10;100723.53;4959228;28;1552;-46
2022/06/26 12:13:21;;;;;;;;;;;;;;;16.38;58.81;100725.19;4960901;28;1133;-48
2022/06/26 12:15:46;;;;;;;;;;;;;;;16.37;58.76;100729.03;4974966;28;1295;-47
2022/06/26 12:18:12;;;;;;;;;;;;;;;16.33;58.79;100722.44;4972944;28;1275;-48
2022/06/26 12:20:38;;;;;;;;;;;;;;;16.29;58.55;100721.31;4968352;28;1524;-50
2022/06/26 12:23:03;;;;;;;;;;;;;;;16.28;58.71;100733.41;4972754;28;1323;-47
2022/06/26 12:25:30;;;;;;;;;;;;;;;16.24;58.69;100733.13;4974318;28;1911;-50
2022/06/26 12:27:55;;;;;;;;;;;;;;;16.20;58.48;100728.44;4969086;28;1294;-48
2022/06/26 12:30:22;;;;;;;;;;;;;;;16.21;58.47;100733.66;4973818;28;1157;-50
2022/06/26 12:32:47;;;;;;;;;;;;;;;16.18;58.36;100742.44;4967657;28;2355;-49
2022/06/26 12:35:13;;;;;;;;;;;;;;;16.17;58.22;100743.56;4967507;28;1604;-50
2022/06/26 12:37:38;;;;;;;;;;;;;;;16.14;58.35;100746.00;4975266;28;1248;-49
2022/06/26 12:40:04;;;;;;;;;;;;;;;16.12;58.46;100743.53;4971715;28;1240;-47
2022/06/26 12:42:30;;;;;;;;;;;;;;;16.12;58.40;100737.19;4968465;28;1066;-51
2022/06/26 12:44:55;;;;;;;;;;;;;;;16.10;58.44;100739.41;4961275;28;1906;-49
2022/06/26 12:47:20;;;;;;;;;;;;;;;16.08;58.13;100732.25;4973280;28;1213;-49
2022/06/26 12:49:46;;;;;;;;;;;;;;;16.10;58.44;100734.72;4974969;28;1039;-50
2022/06/26 12:52:11;;;;;;;;;;;;;;;16.06;58.23;100718.00;4968083;28;1525;-46
2022/06/26 12:54:37;;;;;;;;;;;;;;;16.08;58.14;100726.78;4959997;28;1339;-50
2022/06/26 12:57:02;;;;;;;;;;;;;;;16.08;58.45;100732.25;4971665;28;1236;-48
2022/06/26 12:59:28;;;;;;;;;;;;;;;16.06;58.23;100730.88;4973082;28;1225;-51
2022/06/26 13:01:53;;;;;;;;;;;;;;;16.65;58.19;100740.56;4967177;28;2345;-49